Time;durP1;ratioP1;P1;durP2;ratioP2;P2;SDS_P1;SDS_P2;PMS_P1;PMS_P2;Temp;Humidity;BMP_temperature;BMP_pressure;BME280_temperature;BME280_humidity;BME280_pressure;Samples;Min_cycle;Max_cycle;Signal;HPM_P1;HPM_P2
2022/08/07 00:01:45;;;;;;;1.60;0.80;;;11.10;56.50;;;;;;5052187;28;20025;-60
2022/08/07 00:04:10;;;;;;;3.30;0.80;;;11.10;57.80;;;;;;5071622;28;20492;-60
2022/08/07 00:06:36;;;;;;;0.77;0.68;;;11.00;58.20;;;;;;5050650;28;20033;-60
2022/08/07 00:09:02;;;;;;;1.02;0.80;;;11.00;58.70;;;;;;5071820;28;20027;-60
2022/08/07 00:11:27;;;;;;;1.27;0.80;;;11.00;60.40;;;;;;5051966;28;20455;-60
2022/08/07 00:13:53;;;;;;;1.08;0.80;;;11.00;59.60;;;;;;5053946;28;20028;-60
2022/08/07 00:16:19;;;;;;;1.42;0.85;;;10.90;60.00;;;;;;5051946;28;20032;-60
2022/08/07 00:18:44;;;;;;;1.40;0.85;;;10.90;60.20;;;;;;5051120;28;20037;-60
2022/08/07 00:21:10;;;;;;;1.48;0.93;;;10.80;61.20;;;;;;5070571;28;20032;-59
2022/08/07 00:23:37;;;;;;;2.25;1.20;;;10.90;65.70;;;;;;5049991;28;20113;-60
2022/08/07 00:26:05;;;;;;;1.08;0.90;;;10.80;62.90;;;;;;5070754;28;20103;-60
2022/08/07 00:28:31;;;;;;;1.55;0.88;;;10.80;64.70;;;;;;5049353;28;20409;-60
2022/08/07 00:30:57;;;;;;;0.88;0.88;;;10.70;64.20;;;;;;5070502;28;20032;-59
2022/08/07 00:33:27;;;;;;;2.17;0.70;;;10.70;65.50;;;;;;5049830;28;20028;-60
2022/08/07 00:35:54;;;;;;;0.73;0.73;;;10.70;71.10;;;;;;5070911;28;20031;-59
2022/08/07 00:38:20;;;;;;;1.42;0.70;;;10.70;66.50;;;;;;5049416;28;20369;-60
2022/08/07 00:40:45;;;;;;;1.98;0.75;;;10.70;69.30;;;;;;5070143;28;20051;-60
2022/08/07 00:43:11;;;;;;;1.73;0.70;;;10.70;67.30;;;;;;5049362;28;20037;-60
2022/08/07 00:45:39;;;;;;;1.33;0.77;;;10.60;67.50;;;;;;5070243;28;20028;-60
2022/08/07 00:48:05;;;;;;;1.60;0.82;;;10.60;66.90;;;;;;5049218;28;20287;-59
2022/08/07 00:50:31;;;;;;;1.42;0.90;;;10.60;67.60;;;;;;5069903;28;20052;-61
2022/08/07 00:52:57;;;;;;;1.35;0.88;;;10.50;68.70;;;;;;5059547;28;20033;-60
2022/08/07 00:55:22;;;;;;;1.10;0.75;;;10.50;68.40;;;;;;5051213;28;20028;-61
2022/08/07 00:57:48;;;;;;;0.63;0.60;;;10.50;68.70;;;;;;5067989;28;20400;-61
2022/08/07 01:00:14;;;;;;;2.05;0.80;;;10.40;68.50;;;;;;5051003;28;20457;-61
2022/08/07 01:02:41;;;;;;;1.20;0.80;;;10.40;69.00;;;;;;5067888;28;20035;-61
2022/08/07 01:05:08;;;;;;;1.65;0.82;;;10.40;68.70;;;;;;5050771;28;20082;-61
2022/08/07 01:07:34;;;;;;;3.13;0.70;;;10.40;68.70;;;;;;5068045;28;20281;-62
2022/08/07 01:10:00;;;;;;;1.00;0.80;;;10.40;72.00;;;;;;5070325;28;20259;-61
2022/08/07 01:12:26;;;;;;;1.63;1.10;;;10.30;71.20;;;;;;5054500;28;20266;-61
2022/08/07 01:14:52;;;;;;;3.47;1.23;;;10.30;73.70;;;;;;5050625;28;20032;-60
2022/08/07 01:17:17;;;;;;;2.58;1.00;;;10.30;72.30;;;;;;5067828;28;20056;-61
2022/08/07 01:19:43;;;;;;;0.77;0.77;;;10.20;72.80;;;;;;5070247;28;20427;-61
2022/08/07 01:22:09;;;;;;;1.98;0.85;;;10.20;71.90;;;;;;5051468;28;20033;-60
2022/08/07 01:24:36;;;;;;;1.58;0.70;;;10.20;73.30;;;;;;5070272;28;20046;-48
2022/08/07 01:27:01;;;;;;;2.28;0.60;;;10.20;74.50;;;;;;5050315;28;20098;-61
2022/08/07 01:29:29;;;;;;;1.35;0.98;;;10.10;76.20;;;;;;5070041;28;20525;-61
2022/08/07 01:31:55;;;;;;;3.22;0.93;;;10.10;74.70;;;;;;5049051;28;20025;-60
2022/08/07 01:34:20;;;;;;;1.85;1.00;;;10.10;74.60;;;;;;5070022;28;20392;-61
2022/08/07 01:36:48;;;;;;;0.80;0.70;;;10.00;75.90;;;;;;5050751;28;20028;-61
2022/08/07 01:39:14;;;;;;;2.65;1.00;;;10.00;76.30;;;;;;5067617;28;20473;-61
2022/08/07 01:41:42;;;;;;;0.93;0.68;;;10.00;76.20;;;;;;5050069;28;20055;-61
2022/08/07 01:44:08;;;;;;;1.17;0.95;;;10.00;77.60;;;;;;5048859;28;20580;-61
2022/08/07 01:46:35;;;;;;;2.97;1.02;;;10.00;78.50;;;;;;5069250;28;20024;-61
2022/08/07 01:49:00;;;;;;;1.25;0.63;;;10.00;77.80;;;;;;5048306;28;20025;-60
2022/08/07 01:51:27;;;;;;;0.85;0.70;;;9.90;78.60;;;;;;5069275;28;20043;-61
2022/08/07 01:53:56;;;;;;;1.85;0.60;;;9.90;80.70;;;;;;5048331;28;20540;-61
2022/08/07 01:56:25;;;;;;;2.58;0.90;;;9.90;80.30;;;;;;5069642;28;20064;-61
2022/08/07 01:59:06;;;;;;;0.80;0.80;;;9.90;80.40;;;;;;5048058;28;20492;-61
2022/08/07 02:01:36;;;;;;;1.98;0.90;;;9.90;81.50;;;;;;5029963;28;20033;-61
2022/08/07 02:04:08;;;;;;;1.08;0.85;;;9.90;82.80;;;;;;5050399;28;20500;-61
2022/08/07 02:06:36;;;;;;;1.00;0.90;;;9.80;81.00;;;;;;5029944;28;20024;-62
2022/08/07 02:09:05;;;;;;;1.42;0.90;;;9.80;81.50;;;;;;5050351;28;20035;-60
2022/08/07 02:11:35;;;;;;;1.40;0.90;;;9.80;80.60;;;;;;5069280;28;20040;-61
2022/08/07 02:14:03;;;;;;;2.70;0.95;;;9.80;79.70;;;;;;5050261;28;20024;-61
2022/08/07 02:16:30;;;;;;;2.35;0.85;;;9.70;80.90;;;;;;5049765;28;20516;-61
2022/08/07 02:18:55;;;;;;;2.97;1.00;;;9.70;83.70;;;;;;5051166;28;20021;-60
2022/08/07 02:24:45;;;;;;;0.73;0.70;;;9.60;82.40;;;;;;5030131;28;20053;-60
2022/08/07 02:27:12;;;;;;;1.08;0.98;;;9.60;84.50;;;;;;5066918;28;20033;-61
2022/08/07 02:29:39;;;;;;;1.55;0.90;;;9.60;83.60;;;;;;5069558;28;20020;-61
2022/08/07 02:32:08;;;;;;;1.48;0.88;;;9.60;83.60;;;;;;5048213;28;20048;-59
2022/08/07 02:34:34;;;;;;;0.98;0.88;;;9.60;84.50;;;;;;5069627;28;20025;-62
2022/08/07 02:37:02;;;;;;;0.90;0.85;;;9.50;85.20;;;;;;5048445;28;20397;-61
2022/08/07 02:39:29;;;;;;;1.80;1.42;;;9.50;83.90;;;;;;5029786;28;20032;-61
2022/08/07 02:41:55;;;;;;;2.35;0.95;;;9.50;83.90;;;;;;5068439;28;20028;-60
2022/08/07 02:44:23;;;;;;;1.65;0.90;;;9.50;83.90;;;;;;5047865;28;20448;-61
2022/08/07 02:46:51;;;;;;;2.25;0.90;;;9.50;83.30;;;;;;5068959;28;20121;-61
2022/08/07 02:49:17;;;;;;;2.03;1.00;;;9.40;84.30;;;;;;5048971;28;20029;-61
2022/08/07 02:51:43;;;;;;;1.23;0.93;;;9.40;85.50;;;;;;5071130;28;20120;-61
2022/08/07 02:54:10;;;;;;;2.42;1.00;;;9.40;86.90;;;;;;5051586;28;20037;-61
2022/08/07 02:56:38;;;;;;;1.00;0.80;;;9.40;85.90;;;;;;5072494;28;20025;-61
2022/08/07 02:59:08;;;;;;;1.75;0.82;;;9.30;85.60;;;;;;5051262;28;20029;-61
2022/08/07 03:01:38;;;;;;;2.30;0.88;;;9.30;87.50;;;;;;5033287;28;20025;-61
2022/08/07 03:04:07;;;;;;;0.80;0.80;;;9.30;86.20;;;;;;5054928;28;20064;-60
2022/08/07 03:06:33;;;;;;;1.65;1.00;;;9.30;86.80;;;;;;5072521;28;20054;-61
2022/08/07 03:09:04;;;;;;;3.03;1.20;;;9.20;86.80;;;;;;5051386;28;20056;-62
2022/08/07 03:11:33;;;;;;;1.00;0.90;;;9.20;87.20;;;;;;5032910;28;20462;-61
2022/08/07 03:13:59;;;;;;;1.38;1.05;;;9.20;88.40;;;;;;5055953;28;20028;-60
2022/08/07 03:16:25;;;;;;;1.42;0.88;;;9.20;89.60;;;;;;5053034;28;20025;-61
2022/08/07 03:18:51;;;;;;;1.02;0.85;;;9.20;89.10;;;;;;5056336;28;20043;-61
2022/08/07 03:21:17;;;;;;;1.38;1.05;;;9.20;89.10;;;;;;5071832;28;20032;-61
2022/08/07 03:23:45;;;;;;;1.83;1.25;;;9.20;88.90;;;;;;5051071;28;20477;-61
2022/08/07 03:26:17;;;;;;;3.53;1.30;;;9.20;88.10;;;;;;5071933;28;20036;-61
2022/08/07 03:28:44;;;;;;;1.50;0.95;;;9.20;88.70;;;;;;5042818;28;20033;-61
2022/08/07 03:31:19;;;;;;;1.10;1.00;;;9.20;88.90;;;;;;5071832;28;20025;-62
2022/08/07 03:33:59;;;;;;;1.40;1.20;;;9.20;89.20;;;;;;5043136;28;20104;-61
2022/08/07 03:36:26;;;;;;;2.08;1.15;;;9.10;89.10;;;;;;5032440;28;20041;-61
2022/08/07 03:38:56;;;;;;;1.33;1.15;;;9.10;91.30;;;;;;5056210;28;20481;-61
2022/08/07 03:41:22;;;;;;;2.88;1.00;;;9.10;92.40;;;;;;5072127;28;20028;-61
2022/08/07 03:43:48;;;;;;;1.75;1.00;;;9.10;91.80;;;;;;5050834;28;20041;-61
2022/08/07 03:46:14;;;;;;;1.85;1.13;;;9.10;92.80;;;;;;5071463;28;20536;-61
2022/08/07 03:48:40;;;;;;;1.95;1.10;;;9.10;92.30;;;;;;5050655;28;20499;-61
2022/08/07 03:51:07;;;;;;;1.80;1.40;;;9.10;91.60;;;;;;5070989;28;20045;-61
2022/08/07 03:53:32;;;;;;;1.15;1.05;;;9.10;91.10;;;;;;5060584;28;20064;-61
2022/08/07 03:55:59;;;;;;;1.75;1.10;;;9.10;91.20;;;;;;5052351;28;20060;-60
2022/08/07 03:58:25;;;;;;;1.10;1.00;;;9.10;91.10;;;;;;5069336;28;20029;-61
2022/08/07 04:00:52;;;;;;;4.18;1.17;;;9.20;91.40;;;;;;5052238;28;20566;-61
2022/08/07 04:03:18;;;;;;;1.92;1.10;;;9.20;91.70;;;;;;5068448;28;20076;-61
2022/08/07 04:05:44;;;;;;;2.13;1.17;;;9.20;91.40;;;;;;5052253;28;20072;-61
2022/08/07 04:08:11;;;;;;;2.00;1.50;;;9.20;91.20;;;;;;5069183;28;20439;-61
2022/08/07 04:10:37;;;;;;;2.08;1.17;;;9.30;91.00;;;;;;5071610;28;20020;-61
2022/08/07 04:13:03;;;;;;;2.10;1.10;;;9.30;91.40;;;;;;5055242;28;20066;-60
2022/08/07 04:15:29;;;;;;;4.22;1.40;;;9.30;91.20;;;;;;5071485;28;20103;-60
2022/08/07 04:17:55;;;;;;;3.67;1.45;;;9.40;91.10;;;;;;5054304;28;20029;-60
2022/08/07 04:20:20;;;;;;;1.50;1.15;;;9.40;91.50;;;;;;5071551;28;20031;-60
2022/08/07 04:22:48;;;;;;;1.73;1.33;;;9.50;91.10;;;;;;5052809;28;20119;-61
2022/08/07 04:25:14;;;;;;;1.65;1.23;;;9.70;91.00;;;;;;5071278;28;20024;-61
2022/08/07 04:27:40;;;;;;;2.15;1.17;;;10.10;91.00;;;;;;5051757;28;20033;-60
2022/08/07 04:30:07;;;;;;;1.23;1.13;;;10.90;90.30;;;;;;5071167;28;20053;-61
2022/08/07 04:32:33;;;;;;;1.08;0.90;;;11.80;85.80;;;;;;5050392;28;20033;-60
2022/08/07 04:35:04;;;;;;;1.02;0.90;;;12.60;80.30;;;;;;5071071;28;20504;-60
2022/08/07 04:37:31;;;;;;;1.70;1.00;;;13.20;75.20;;;;;;5030052;28;20033;-60
2022/08/07 04:39:56;;;;;;;0.77;0.77;;;14.10;71.30;;;;;;5070978;28;20194;-62
2022/08/07 04:42:26;;;;;;;1.65;0.70;;;14.80;66.70;;;;;;5051381;28;20206;-62
2022/08/07 04:44:53;;;;;;;1.40;0.90;;;15.70;63.90;;;;;;5047937;28;20098;-61
2022/08/07 04:47:36;;;;;;;0.93;0.93;;;16.40;59.70;;;;;;5070416;28;20085;-61
2022/08/07 04:50:29;;;;;;;3.15;0.95;;;17.10;56.10;;;;;;5046187;28;20044;-61
2022/08/07 04:53:07;;;;;;;0.75;0.75;;;17.70;51.40;;;;;;5035708;28;20082;-61
2022/08/07 04:55:58;;;;;;;1.33;0.85;;;18.40;49.10;;;;;;5070733;28;20059;-61
2022/08/07 04:58:32;;;;;;;0.95;0.70;;;19.00;44.30;;;;;;5043167;28;20109;-61
2022/08/07 05:01:37;;;;;;;0.73;0.65;;;19.50;46.70;;;;;;5070650;28;20042;-61
2022/08/07 05:04:17;;;;;;;0.85;0.80;;;20.20;37.30;;;;;;5053461;28;20416;-62
2022/08/07 05:06:54;;;;;;;1.20;0.80;;;20.70;34.00;;;;;;5030709;28;20029;-61
2022/08/07 05:09:26;;;;;;;0.77;0.73;;;21.20;36.40;;;;;;5043440;28;20485;-62
2022/08/07 05:11:53;;;;;;;1.05;0.85;;;21.80;36.90;;;;;;5030458;28;20414;-61
2022/08/07 05:14:38;;;;;;;1.13;0.90;;;22.40;36.30;;;;;;5056770;28;20111;-61
2022/08/07 05:17:08;;;;;;;1.85;1.00;;;22.90;33.90;;;;;;5030539;28;20034;-62
2022/08/07 05:19:39;;;;;;;1.08;0.90;;;23.50;30.50;;;;;;5045036;28;20037;-61
2022/08/07 05:22:08;;;;;;;1.85;0.82;;;24.00;29.00;;;;;;5030242;28;20034;-61
2022/08/07 05:24:36;;;;;;;1.98;0.50;;;24.50;27.90;;;;;;5051814;28;20037;-61
2022/08/07 05:27:04;;;;;;;1.35;0.90;;;25.00;26.00;;;;;;5069757;28;20039;-61
2022/08/07 05:29:30;;;;;;;1.35;0.90;;;25.50;24.20;;;;;;5048710;28;20052;-61
2022/08/07 05:31:58;;;;;;;0.90;0.80;;;26.00;23.30;;;;;;5069420;28;20116;-61
2022/08/07 05:34:25;;;;;;;1.33;0.55;;;26.40;21.60;;;;;;5048539;28;20481;-61
2022/08/07 05:36:52;;;;;;;2.03;0.80;;;26.80;20.10;;;;;;5069506;28;20283;-61
2022/08/07 05:39:20;;;;;;;0.80;0.68;;;27.40;18.00;;;;;;5048463;28;20033;-61
2022/08/07 05:41:47;;;;;;;0.98;0.90;;;27.70;14.30;;;;;;5069602;28;20039;-61
2022/08/07 05:44:17;;;;;;;0.90;0.63;;;28.00;13.30;;;;;;5048211;28;20032;-61
2022/08/07 05:46:44;;;;;;;1.25;0.88;;;28.30;11.80;;;;;;5069796;28;20154;-62
2022/08/07 05:49:10;;;;;;;1.27;1.00;;;28.70;10.30;;;;;;5048667;28;20113;-61
2022/08/07 05:51:37;;;;;;;1.85;1.10;;;29.20;8.70;;;;;;5070021;28;20117;-61
2022/08/07 05:54:03;;;;;;;2.10;1.10;;;29.70;7.50;;;;;;5059533;28;20465;-61
2022/08/07 05:56:32;;;;;;;1.27;1.00;;;30.20;6.10;;;;;;5050295;28;20112;-61
2022/08/07 05:59:00;;;;;;;2.45;1.10;;;30.60;1.20;;;;;;5067598;28;20037;-61
2022/08/07 06:01:27;;;;;;;1.15;1.02;;;30.90;2.80;;;;;;5049994;28;20469;-61
2022/08/07 06:03:54;;;;;;;1.75;1.10;;;31.30;2.70;;;;;;5067386;28;20036;-61
2022/08/07 06:06:20;;;;;;;1.45;1.30;;;31.50;1.00;;;;;;5050126;28;20505;-61
2022/08/07 06:08:46;;;;;;;2.28;1.48;;;31.80;1.00;;;;;;5067165;28;20035;-62
2022/08/07 06:11:12;;;;;;;1.73;1.38;;;31.70;1.00;;;;;;5048856;28;20068;-61
2022/08/07 06:13:38;;;;;;;3.13;1.25;;;31.40;1.00;;;;;;5063733;28;20399;-61
2022/08/07 06:16:06;;;;;;;2.78;1.40;;;31.50;1.00;;;;;;5069656;28;20031;-61
2022/08/07 06:18:33;;;;;;;2.20;1.50;;;31.90;1.00;;;;;;5054148;28;20024;-61
2022/08/07 06:21:00;;;;;;;2.17;1.40;;;32.40;1.00;;;;;;5069662;28;20156;-61
2022/08/07 06:23:27;;;;;;;1.70;1.23;;;32.80;1.00;;;;;;5053069;28;20606;-61
2022/08/07 06:25:53;;;;;;;1.23;1.10;;;33.50;1.00;;;;;;5070295;28;20025;-60
2022/08/07 06:28:18;;;;;;;3.45;1.30;;;34.00;1.00;;;;;;5055902;28;20038;-61
2022/08/07 06:30:44;;;;;;;1.23;1.13;;;34.50;1.00;;;;;;5055521;28;20035;-61
2022/08/07 06:33:09;;;;;;;1.50;1.40;;;34.90;1.00;;;;;;5053339;28;20021;-61
2022/08/07 06:35:35;;;;;;;3.55;1.40;;;34.80;1.00;;;;;;5073427;28;20123;-61
2022/08/07 06:38:02;;;;;;;1.63;1.25;;;34.40;1.00;;;;;;5053132;28;20501;-61
2022/08/07 06:40:39;;;;;;;2.10;1.50;;;34.40;1.00;;;;;;5073306;28;20408;-61
2022/08/07 06:43:07;;;;;;;3.00;1.55;;;34.70;1.00;;;;;;5034639;28;20045;-60
2022/08/07 06:45:33;;;;;;;2.97;1.60;;;35.40;1.00;;;;;;5073287;28;20100;-61
2022/08/07 06:48:00;;;;;;;1.73;1.10;;;35.10;1.00;;;;;;5052331;28;20648;-60
2022/08/07 06:50:27;;;;;;;1.55;1.35;;;35.60;1.00;;;;;;5061853;28;20106;-61
2022/08/07 06:52:56;;;;;;;1.60;1.20;;;35.60;1.00;;;;;;5072658;28;20024;-61
2022/08/07 06:55:28;;;;;;;2.55;1.20;;;34.50;1.00;;;;;;5072989;28;20028;-60
2022/08/07 06:57:58;;;;;;;2.10;1.15;;;34.90;1.00;;;;;;5052894;28;20021;-59
2022/08/07 07:00:25;;;;;;;1.48;1.00;;;35.40;1.00;;;;;;5033247;28;20108;-60
2022/08/07 07:02:51;;;;;;;1.63;1.20;;;35.90;1.00;;;;;;5071861;28;20036;-59
2022/08/07 07:05:20;;;;;;;1.40;1.15;;;36.60;1.00;;;;;;5051400;28;20064;-60
2022/08/07 07:07:46;;;;;;;2.58;0.90;;;37.30;1.00;;;;;;5072389;28;20489;-60
2022/08/07 07:10:12;;;;;;;1.08;0.90;;;37.40;1.00;;;;;;5051417;28;20041;-60
2022/08/07 07:12:50;;;;;;;1.40;1.00;;;37.20;1.00;;;;;;5072282;28;20047;-60
2022/08/07 07:15:25;;;;;;;1.60;1.08;;;37.50;1.00;;;;;;5043326;28;20548;-60
2022/08/07 07:18:10;;;;;;;2.03;1.23;;;37.90;1.00;;;;;;5032797;28;20045;-60
2022/08/07 07:20:40;;;;;;;1.50;1.13;;;37.40;1.00;;;;;;5032753;28;20021;-61
2022/08/07 07:23:06;;;;;;;1.23;0.88;;;37.10;1.00;;;;;;5032080;28;20042;-60
2022/08/07 07:25:36;;;;;;;1.48;1.20;;;37.40;1.00;;;;;;5072496;28;20021;-61
2022/08/07 07:28:16;;;;;;;1.30;1.20;;;37.80;1.00;;;;;;5052361;28;20120;-51
2022/08/07 07:30:49;;;;;;;2.15;1.15;;;37.50;1.00;;;;;;5052519;28;20053;-49
2022/08/07 07:33:16;;;;;;;1.75;1.20;;;36.10;1.00;;;;;;5033817;28;20026;-50
2022/08/07 07:35:44;;;;;;;1.10;1.00;;;36.60;1.00;;;;;;5071052;28;20028;-47
2022/08/07 07:38:12;;;;;;;2.22;1.05;;;37.40;1.00;;;;;;5050272;28;20021;-48
2022/08/07 07:40:40;;;;;;;1.65;1.15;;;37.60;1.00;;;;;;5072260;28;20033;-51
2022/08/07 07:43:06;;;;;;;2.88;1.00;;;36.80;1.00;;;;;;5050606;28;20032;-52
2022/08/07 07:45:32;;;;;;;1.27;1.17;;;37.10;1.00;;;;;;5072249;28;20116;-50
2022/08/07 07:47:59;;;;;;;2.08;1.00;;;37.40;1.00;;;;;;5052546;28;20171;-53
2022/08/07 07:50:26;;;;;;;0.82;0.80;;;38.00;1.00;;;;;;5061123;28;20051;-52
2022/08/07 07:52:53;;;;;;;1.30;1.02;;;38.10;1.00;;;;;;5052200;28;20037;-51
2022/08/07 07:55:20;;;;;;;1.63;1.10;;;38.50;1.00;;;;;;5051333;28;20160;-51
2022/08/07 07:57:49;;;;;;;2.67;1.00;;;38.60;1.00;;;;;;5071243;28;20036;-51
2022/08/07 08:00:16;;;;;;;1.40;1.23;;;37.90;1.00;;;;;;5050347;28;20025;-53
2022/08/07 08:02:43;;;;;;;3.53;1.35;;;35.80;1.00;;;;;;5071075;28;20117;-49
2022/08/07 08:05:10;;;;;;;1.95;1.30;;;34.80;1.00;;;;;;5050432;28;20033;-52
2022/08/07 08:07:38;;;;;;;1.58;1.25;;;34.80;1.00;;;;;;5071213;28;20300;-49
2022/08/07 08:10:06;;;;;;;2.58;1.13;;;35.30;1.00;;;;;;5049962;28;20048;-50
2022/08/07 08:12:33;;;;;;;1.00;0.90;;;35.70;1.00;;;;;;5071216;28;20024;-51
2022/08/07 08:14:59;;;;;;;1.13;0.90;;;36.00;1.00;;;;;;5043560;28;20055;-47
2022/08/07 08:17:26;;;;;;;1.13;0.95;;;36.30;1.00;;;;;;5070876;28;20033;-50
2022/08/07 08:19:55;;;;;;;2.45;1.10;;;36.30;1.00;;;;;;5050166;28;20034;-52
2022/08/07 08:27:53;;;;;;;0.82;0.82;;;35.60;1.00;;;;;;5031708;28;20040;-49
2022/08/07 08:30:19;;;;;;;1.13;0.98;;;35.10;1.00;;;;;;5051602;28;20515;-51
2022/08/07 08:33:05;;;;;;;2.20;1.20;;;34.90;1.00;;;;;;5070418;28;20473;-49
2022/08/07 08:35:32;;;;;;;2.33;1.38;;;33.50;1.00;;;;;;5048183;28;20029;-52
2022/08/07 08:38:01;;;;;;;1.58;1.00;;;31.10;1.00;;;;;;5070454;28;20460;-50
2022/08/07 08:40:34;;;;;;;1.50;1.10;;;31.00;1.00;;;;;;5049124;28;20029;-50
2022/08/07 08:43:16;;;;;;;1.25;0.80;;;31.60;1.00;;;;;;5030815;28;20470;-49
2022/08/07 08:45:54;;;;;;;1.40;0.93;;;32.00;1.00;;;;;;5048995;28;20163;-52
2022/08/07 08:48:42;;;;;;;0.80;0.80;;;32.30;1.00;;;;;;5029404;28;20025;-52
2022/08/07 08:51:45;;;;;;;1.05;0.93;;;32.40;1.00;;;;;;5070555;28;20123;-48
2022/08/07 08:54:40;;;;;;;2.15;0.80;;;32.40;1.00;;;;;;5043366;28;20075;-50
2022/08/07 08:57:12;;;;;;;2.45;0.98;;;31.80;1.00;;;;;;5030752;28;20025;-56
2022/08/07 09:00:03;;;;;;;1.88;1.10;;;31.20;1.00;;;;;;5068686;28;20059;-48
2022/08/07 09:02:37;;;;;;;3.03;1.33;;;31.40;1.00;;;;;;5030847;28;20025;-51
2022/08/07 09:05:25;;;;;;;1.77;0.90;;;30.90;1.00;;;;;;5042837;28;20031;-51
2022/08/07 09:08:21;;;;;;;2.65;1.00;;;30.80;1.00;;;;;;5030617;28;20037;-50
2022/08/07 09:11:12;;;;;;;1.05;0.95;;;31.10;1.00;;;;;;5045835;28;20490;-49
2022/08/07 09:14:13;;;;;;;1.08;0.98;;;31.50;1.00;;;;;;5055888;28;20094;-53
2022/08/07 09:17:09;;;;;;;1.55;0.85;;;31.80;1.00;;;;;;5069731;28;20653;-49
2022/08/07 09:19:56;;;;;;;1.80;1.48;;;31.70;1.00;;;;;;5048213;28;20028;-53
2022/08/07 09:22:33;;;;;;;3.38;1.30;;;31.90;1.00;;;;;;5029183;28;20032;-53
2022/08/07 09:25:24;;;;;;;1.02;0.90;;;32.10;1.00;;;;;;5041506;28;20135;-51
2022/08/07 09:27:58;;;;;;;3.05;1.20;;;32.30;1.00;;;;;;5030249;28;20101;-50
2022/08/07 09:30:28;;;;;;;1.15;1.08;;;32.50;1.00;;;;;;5052142;28;20021;-50
2022/08/07 09:33:14;;;;;;;0.80;0.80;;;32.60;1.00;;;;;;5069883;28;20037;-49
2022/08/07 09:36:01;;;;;;;1.40;0.95;;;32.80;1.00;;;;;;5048349;28;20032;-52
2022/08/07 09:38:48;;;;;;;1.15;0.93;;;32.60;1.00;;;;;;5030225;28;20430;-51
2022/08/07 09:41:33;;;;;;;0.70;0.70;;;32.30;1.00;;;;;;5030002;28;20026;-54
2022/08/07 09:44:26;;;;;;;1.13;1.02;;;32.20;1.00;;;;;;5036431;28;20042;-52
2022/08/07 09:47:16;;;;;;;1.63;0.90;;;31.90;1.00;;;;;;5069994;28;20016;-51
2022/08/07 09:49:56;;;;;;;1.30;1.00;;;31.40;1.00;;;;;;5047762;28;20052;-47
2022/08/07 09:52:25;;;;;;;1.30;1.20;;;31.10;1.00;;;;;;5029993;28;20116;-46
2022/08/07 09:55:13;;;;;;;1.45;1.00;;;30.80;1.00;;;;;;5067496;28;20035;-49
2022/08/07 09:58:18;;;;;;;1.17;1.08;;;30.50;1.00;;;;;;5029834;28;20033;-47
2022/08/07 10:01:12;;;;;;;1.48;0.90;;;30.20;1.00;;;;;;5047588;28;20025;-51
2022/08/07 10:03:56;;;;;;;2.38;1.10;;;29.90;1.00;;;;;;5034662;28;20144;-49
2022/08/07 10:06:48;;;;;;;2.50;1.00;;;29.80;1.00;;;;;;5076426;28;20013;-47
2022/08/07 10:09:45;;;;;;;1.58;1.00;;;29.60;1.00;;;;;;5045372;28;20119;-47
2022/08/07 10:12:37;;;;;;;1.60;1.08;;;29.30;1.00;;;;;;5036414;28;20048;-49
2022/08/07 10:15:34;;;;;;;3.35;1.15;;;29.00;1.00;;;;;;5052847;28;20279;-47
2022/08/07 10:18:30;;;;;;;0.95;0.70;;;28.60;1.00;;;;;;5036371;28;20029;-53
2022/08/07 10:20:56;;;;;;;;;;;28.30;1.00;;;;;;5073530;28;20032;-54
2022/08/07 10:23:36;;;;;;;;;;;28.20;1.00;;;;;;5057174;28;19916;-48
2022/08/07 10:26:11;;;;;;;2.40;0.80;;;28.00;1.00;;;;;;5056184;28;20419;-49
2022/08/07 10:29:14;;;;;;;3.13;0.87;;;27.80;1.00;;;;;;5036287;28;20044;-48
2022/08/07 10:32:10;;;;;;;3.80;0.88;;;27.70;1.00;;;;;;5036252;28;20029;-48
2022/08/07 10:34:59;;;;;;;;;;;27.50;1.00;;;;;;5050455;28;20032;-50
2022/08/07 10:37:27;;;;;;;1.15;0.98;;;27.30;1.00;;;;;;5038130;28;20420;-49
2022/08/07 10:40:04;;;;;;;2.17;0.82;;;27.20;1.00;;;;;;5072679;28;20423;-54
2022/08/07 10:42:39;;;;;;;0.73;0.60;;;27.20;1.00;;;;;;5036160;28;20021;-50
2022/08/07 10:45:22;;;;;;;1.15;0.70;;;27.30;1.00;;;;;;5057208;28;20036;-50
2022/08/07 10:47:55;;;;;;;1.05;0.60;;;27.10;1.00;;;;;;5036161;28;20033;-51
2022/08/07 10:50:30;;;;;;;1.13;0.95;;;27.10;1.00;;;;;;5046687;28;20057;-53
2022/08/07 10:53:48;;;;;;;1.37;1.07;;;26.90;1.00;;;;;;5036028;28;20139;-48
2022/08/07 10:56:35;;;;;;;1.38;0.70;;;26.90;1.00;;;;;;5048839;28;20037;-53
2022/08/07 10:59:34;;;;;;;1.13;0.80;;;26.80;1.00;;;;;;5038584;28;20053;-55
2022/08/07 11:02:28;;;;;;;0.90;0.73;;;26.70;1.00;;;;;;5075963;28;20100;-54
2022/08/07 11:04:59;;;;;;;5.65;1.00;;;26.70;1.00;;;;;;5052754;28;20469;-49
2022/08/07 11:07:49;;;;;;;0.85;0.80;;;26.80;1.00;;;;;;5055972;28;20072;-53
2022/08/07 11:11:00;;;;;;;1.08;0.75;;;26.90;1.00;;;;;;5058253;28;20233;-51
2022/08/07 11:13:50;;;;;;;1.95;1.17;;;27.00;1.00;;;;;;5035214;28;20097;-48
2022/08/07 11:16:25;;;;;;;1.17;1.00;;;26.60;1.00;;;;;;5032650;28;20030;-50
2022/08/07 11:19:02;;;;;;;1.83;1.10;;;26.40;1.00;;;;;;5031659;28;20037;-48
2022/08/07 11:21:41;;;;;;;0.75;0.75;;;26.20;1.00;;;;;;5072660;28;20021;-51
2022/08/07 11:24:38;;;;;;;1.35;1.02;;;26.20;1.00;;;;;;5035461;28;20041;-49
2022/08/07 11:27:31;;;;;;;2.53;1.15;;;25.90;1.00;;;;;;5071816;28;20025;-55
2022/08/07 11:30:05;;;;;;;2.10;0.95;;;25.60;1.00;;;;;;5048746;28;20033;-49
2022/08/07 11:33:01;;;;;;;2.05;1.13;;;25.60;1.00;;;;;;5052394;28;20056;-49
2022/08/07 11:35:42;;;;;;;1.48;1.00;;;25.80;1.00;;;;;;5048698;28;20037;-48
2022/08/07 11:38:40;;;;;;;1.20;0.80;;;26.10;1.00;;;;;;5032319;28;20042;-49
2022/08/07 11:41:21;;;;;;;1.75;1.05;;;26.40;1.00;;;;;;5048870;28;20025;-49
2022/08/07 11:44:13;;;;;;;1.27;0.70;;;26.70;1.00;;;;;;5032228;28;20121;-51
2022/08/07 11:47:03;;;;;;;1.17;0.98;;;26.80;1.00;;;;;;5031773;28;20487;-50
2022/08/07 11:50:00;;;;;;;1.73;1.05;;;26.90;1.00;;;;;;5039504;28;20112;-51
2022/08/07 11:52:55;;;;;;;2.97;1.08;;;27.00;1.00;;;;;;5072006;28;20056;-54
2022/08/07 11:55:41;;;;;;;5.15;1.30;;;26.70;1.00;;;;;;5051699;28;20285;-48
2022/08/07 11:58:20;;;;;;;2.70;1.52;;;26.30;1.00;;;;;;5031864;28;20489;-49
2022/08/07 12:01:08;;;;;;;1.00;0.90;;;26.10;1.00;;;;;;5045125;28;20033;-50
2022/08/07 12:03:36;;;;;;;1.45;1.17;;;26.00;1.00;;;;;;5031844;28;20087;-47
2022/08/07 12:06:38;;;;;;;2.38;0.95;;;26.00;1.00;;;;;;5052025;28;20033;-52
2022/08/07 12:09:14;;;;;;;1.75;1.23;;;25.90;1.00;;;;;;5031542;28;20033;-54
2022/08/07 12:12:04;;;;;;;1.45;1.00;;;25.80;1.00;;;;;;5071630;28;20138;-53
2022/08/07 12:14:43;;;;;;;1.27;0.82;;;26.00;1.00;;;;;;5049566;28;20031;-52
2022/08/07 12:17:15;;;;;;;1.17;0.93;;;26.00;1.00;;;;;;5071379;28;20023;-48
2022/08/07 12:19:56;;;;;;;1.25;1.10;;;26.10;1.00;;;;;;5055118;28;20103;-50
2022/08/07 12:22:38;;;;;;;3.70;1.20;;;26.10;1.00;;;;;;5071477;28;20412;-51
2022/08/07 12:28:31;;;;;;;1.73;1.05;;;25.80;1.00;;;;;;5031303;28;20088;-51
2022/08/07 12:31:05;;;;;;;1.17;0.90;;;25.70;1.00;;;;;;5045294;28;20025;-50
2022/08/07 12:33:32;;;;;;;0.80;0.80;;;25.30;1.00;;;;;;5031548;28;20478;-48
2022/08/07 12:36:00;;;;;;;2.42;1.35;;;25.10;1.00;;;;;;5052626;28;20025;-52
2022/08/07 12:38:28;;;;;;;1.83;1.05;;;25.00;1.00;;;;;;5070569;28;20450;-51
2022/08/07 12:40:56;;;;;;;1.35;0.90;;;25.00;1.00;;;;;;5049284;28;20493;-50
2022/08/07 12:43:31;;;;;;;1.52;1.00;;;24.80;1.00;;;;;;5070355;28;20496;-50
2022/08/07 12:46:20;;;;;;;0.77;0.75;;;24.80;1.00;;;;;;5044524;28;20278;-52
2022/08/07 12:49:10;;;;;;;1.50;0.90;;;24.90;1.00;;;;;;5030508;28;20029;-54
2022/08/07 12:51:45;;;;;;;2.35;0.80;;;24.90;1.00;;;;;;5030949;28;20045;-47
2022/08/07 12:54:30;;;;;;;2.45;0.90;;;24.90;1.00;;;;;;5030087;28;20029;-51
2022/08/07 12:56:57;;;;;;;1.48;0.70;;;25.00;1.00;;;;;;5070895;28;20319;-47
2022/08/07 12:59:28;;;;;;;2.17;0.80;;;25.10;1.00;;;;;;5051070;28;20428;-49
2022/08/07 13:02:12;;;;;;;1.08;0.80;;;25.10;1.00;;;;;;5070627;28;20055;-54
2022/08/07 13:05:16;;;;;;;0.80;0.80;;;25.20;1.00;;;;;;5036629;28;20040;-52
2022/08/07 13:08:11;;;;;;;1.40;0.90;;;25.10;1.00;;;;;;5051037;28;20025;-51
2022/08/07 13:11:15;;;;;;;2.25;1.70;;;24.50;1.00;;;;;;5052499;28;20649;-53
2022/08/07 13:14:19;;;;;;;0.82;0.80;;;24.50;1.00;;;;;;5036556;28;20494;-49
2022/08/07 13:16:48;;;;;;;1.38;1.08;;;24.50;1.00;;;;;;5070420;28;20036;-52
2022/08/07 13:19:25;;;;;;;1.85;1.15;;;24.30;1.00;;;;;;5047364;28;20389;-49
2022/08/07 13:22:18;;;;;;;1.48;1.00;;;24.40;1.00;;;;;;5070276;28;20586;-55
2022/08/07 13:24:52;;;;;;;2.92;0.93;;;24.40;1.00;;;;;;5036942;28;20021;-50
2022/08/07 13:27:25;;;;;;;1.58;1.05;;;24.50;1.00;;;;;;5070127;28;20078;-48
2022/08/07 13:30:05;;;;;;;2.85;1.00;;;24.60;1.00;;;;;;5038299;28;20055;-50
2022/08/07 13:32:49;;;;;;;1.17;1.05;;;24.60;1.00;;;;;;5070217;28;20058;-62
2022/08/07 13:35:45;;;;;;;1.52;0.93;;;24.60;1.00;;;;;;5044153;28;20021;-60
2022/08/07 13:38:18;;;;;;;1.00;0.85;;;24.60;1.00;;;;;;5030400;28;20069;-60
2022/08/07 13:41:10;;;;;;;1.52;0.90;;;24.70;1.00;;;;;;5052178;28;20111;-60
2022/08/07 13:43:45;;;;;;;1.20;1.00;;;24.70;1.00;;;;;;5030092;28;20041;-60